createdAt,value
2023-02-27T00:01:04.452Z,-7.00
2023-02-27T00:03:34.450Z,-7.10
2023-02-27T00:06:04.624Z,-7.20
2023-02-27T00:08:37.062Z,-7.70
2023-02-27T00:11:07.202Z,-7.20
2023-02-27T00:13:37.819Z,-7.40
2023-02-27T00:16:09.897Z,-7.50
2023-02-27T00:18:41.364Z,-7.40
2023-02-27T00:21:11.453Z,-7.40
2023-02-27T00:23:44.553Z,-7.70
2023-02-27T00:26:14.350Z,-7.80
2023-02-27T00:28:44.272Z,-7.30
2023-02-27T00:31:14.173Z,-7.20
2023-02-27T00:33:44.426Z,-7.50
2023-02-27T00:36:14.350Z,-7.20
2023-02-27T00:38:46.866Z,-7.40
2023-02-27T00:41:16.716Z,-7.00
2023-02-27T00:43:47.183Z,-7.20
2023-02-27T00:46:17.118Z,-7.40
2023-02-27T00:48:47.794Z,-7.10
2023-02-27T00:51:20.162Z,-7.70
2023-02-27T00:53:52.901Z,-7.60
2023-02-27T00:56:22.747Z,-7.40
2023-02-27T00:58:53.788Z,-7.30
2023-02-27T01:01:25.691Z,-7.50
2023-02-27T01:03:55.968Z,-8.00
2023-02-27T01:06:25.857Z,-8.00
2023-02-27T01:09:00.201Z,-7.90
2023-02-27T01:11:30.063Z,-8.30
2023-02-27T01:14:03.366Z,-8.20
2023-02-27T01:16:33.605Z,-8.20
2023-02-27T01:19:03.858Z,-8.10
2023-02-27T01:21:33.805Z,-8.30
2023-02-27T01:24:06.642Z,-8.50
2023-02-27T01:26:36.395Z,-8.70
2023-02-27T01:29:07.366Z,-8.70
2023-02-27T01:31:37.296Z,-8.30
2023-02-27T01:34:07.721Z,-8.40
2023-02-27T01:36:37.542Z,-8.40
2023-02-27T01:39:10.111Z,-8.50
2023-02-27T01:41:40.130Z,-8.20
2023-02-27T01:44:12.482Z,-8.00
2023-02-27T01:46:42.334Z,-8.00
2023-02-27T01:49:18.371Z,-8.20
2023-02-27T01:51:54.038Z,-8.10
2023-02-27T01:54:29.400Z,-8.30
2023-02-27T01:57:02.415Z,-8.50
2023-02-27T01:59:33.171Z,-8.50
2023-02-27T02:02:05.826Z,-8.70
2023-02-27T02:04:40.961Z,-8.80
2023-02-27T02:07:14.415Z,-8.60
2023-02-27T02:09:51.726Z,-8.80
2023-02-27T02:12:25.204Z,-8.70
2023-02-27T02:14:55.133Z,-8.80
2023-02-27T02:17:32.627Z,-8.70
2023-02-27T02:20:29.217Z,-8.80
2023-02-27T02:23:29.167Z,-8.50
2023-02-27T02:26:22.372Z,-8.70
2023-02-27T02:29:29.483Z,-8.70
2023-02-27T02:32:30.170Z,-8.70
2023-02-27T02:35:40.395Z,-8.80
2023-02-27T02:38:36.373Z,-8.50
2023-02-27T02:41:15.647Z,-8.80
2023-02-27T02:43:55.118Z,-8.50
2023-02-27T02:46:33.706Z,-8.70
2023-02-27T02:49:12.160Z,-8.90
2023-02-27T02:51:49.230Z,-8.90
2023-02-27T02:54:30.085Z,-8.80
2023-02-27T02:57:06.217Z,-8.70
2023-02-27T02:59:41.800Z,-8.80
2023-02-27T03:02:14.479Z,-8.60
2023-02-27T03:04:49.530Z,-9.10
2023-02-27T03:07:26.686Z,-9.10
2023-02-27T03:10:06.449Z,-8.70
2023-02-27T03:12:38.401Z,-9.10
2023-02-27T03:15:15.068Z,-9.00
2023-02-27T03:17:49.504Z,-9.00
2023-02-27T03:20:25.286Z,-9.00
2023-02-27T03:23:00.158Z,-9.10
2023-02-27T03:25:34.116Z,-8.70
2023-02-27T03:28:08.904Z,-9.00
2023-02-27T03:30:42.377Z,-9.20
2023-02-27T03:33:19.126Z,-9.30
2023-02-27T03:35:56.025Z,-9.50
2023-02-27T03:38:34.561Z,-9.20
2023-02-27T03:41:12.565Z,-9.50
2023-02-27T03:44:05.197Z,-9.70
2023-02-27T03:46:35.226Z,-9.40
2023-02-27T03:49:05.762Z,-9.60
2023-02-27T03:51:36.725Z,-9.50
2023-02-27T03:54:11.832Z,-9.20
2023-02-27T03:56:50.633Z,-8.80
2023-02-27T03:59:20.802Z,-9.10
2023-02-27T04:01:54.918Z,-8.90
2023-02-27T04:04:25.132Z,-8.80
2023-02-27T04:07:27.086Z,-8.70
2023-02-27T04:10:21.941Z,-8.90
2023-02-27T04:13:23.760Z,-8.40
2023-02-27T04:16:15.758Z,-8.30
2023-02-27T04:18:58.989Z,-8.30
2023-02-27T04:21:33.964Z,-8.30
2023-02-27T04:24:14.024Z,-8.30
2023-02-27T04:26:49.386Z,-8.10
2023-02-27T04:29:28.394Z,-8.50
2023-02-27T04:32:02.619Z,-8.50
2023-02-27T04:34:37.031Z,-8.30
2023-02-27T04:37:13.971Z,-8.20
2023-02-27T04:39:51.976Z,-8.10
2023-02-27T04:42:26.126Z,-8.40
2023-02-27T04:45:01.851Z,-8.30
2023-02-27T04:47:36.513Z,-8.30
2023-02-27T04:50:11.942Z,-8.20
2023-02-27T04:52:46.322Z,-8.30
2023-02-27T04:55:22.286Z,-8.00
2023-02-27T04:57:56.127Z,-8.30
2023-02-27T05:00:32.377Z,-8.10
2023-02-27T05:03:07.521Z,-8.10
2023-02-27T05:05:40.914Z,-8.10
2023-02-27T05:08:17.215Z,-8.10
2023-02-27T05:10:53.851Z,-8.00
2023-02-27T05:13:29.248Z,-7.90
2023-02-27T05:16:09.141Z,-8.10
2023-02-27T05:18:39.090Z,-8.00
2023-02-27T05:21:18.083Z,-8.00
2023-02-27T05:23:56.546Z,-8.30
2023-02-27T05:26:37.825Z,-8.30
2023-02-27T05:29:13.356Z,-8.30
2023-02-27T05:31:53.285Z,-8.20
2023-02-27T05:34:28.902Z,-8.10
2023-02-27T05:37:02.735Z,-8.10
2023-02-27T05:39:35.037Z,-8.40
2023-02-27T05:42:11.026Z,-8.10
2023-02-27T05:44:46.544Z,-8.10
2023-02-27T05:47:23.679Z,-8.10
2023-02-27T05:49:58.000Z,-8.10
2023-02-27T05:52:29.601Z,-8.20
2023-02-27T05:55:04.761Z,-8.10
2023-02-27T05:57:39.512Z,-8.10
2023-02-27T06:00:16.077Z,-8.30
2023-02-27T06:02:48.802Z,-8.80
2023-02-27T06:05:21.351Z,-8.70
2023-02-27T06:07:51.887Z,-9.00
2023-02-27T06:10:23.184Z,-8.70
2023-02-27T06:12:53.010Z,-8.80
2023-02-27T06:15:23.573Z,-8.50
2023-02-27T06:17:56.661Z,-8.50
2023-02-27T06:20:27.128Z,-8.80
2023-02-27T06:22:56.946Z,-9.00
2023-02-27T06:25:26.962Z,-9.00
2023-02-27T06:27:57.124Z,-8.70
2023-02-27T06:30:27.415Z,-8.60
2023-02-27T06:33:01.059Z,-8.70
2023-02-27T06:35:31.913Z,-9.30
2023-02-27T06:38:01.995Z,-8.70
2023-02-27T06:40:32.517Z,-8.40
2023-02-27T06:43:02.702Z,-7.90
2023-02-27T06:45:33.381Z,-7.40
2023-02-27T06:48:06.085Z,-7.40
2023-02-27T06:50:36.067Z,-7.30
2023-02-27T06:53:07.071Z,-7.70
2023-02-27T06:55:37.307Z,-7.40
2023-02-27T06:58:07.326Z,-7.00
2023-02-27T07:00:37.450Z,-6.80
2023-02-27T07:03:10.292Z,-7.00
2023-02-27T07:05:40.277Z,-6.40
2023-02-27T07:08:10.394Z,-6.60
2023-02-27T07:10:43.047Z,-6.80
2023-02-27T07:13:15.868Z,-6.90
2023-02-27T07:15:47.201Z,-6.60
2023-02-27T07:18:19.827Z,-6.70
2023-02-27T07:20:55.381Z,-6.40
2023-02-27T07:23:25.389Z,-6.20
2023-02-27T07:25:55.447Z,-6.10
2023-02-27T07:28:25.542Z,-5.80
2023-02-27T07:30:57.513Z,-6.00
2023-02-27T07:33:30.183Z,-5.70
2023-02-27T07:36:00.242Z,-5.80
2023-02-27T07:38:32.387Z,-5.60
2023-02-27T07:41:04.624Z,-6.00
2023-02-27T07:43:34.644Z,-5.70
2023-02-27T07:46:05.329Z,-5.70
2023-02-27T07:48:39.619Z,-6.00
2023-02-27T07:51:10.151Z,-5.50
2023-02-27T07:53:40.116Z,-4.80
2023-02-27T07:56:10.944Z,-4.20
2023-02-27T07:58:41.089Z,-3.90
2023-02-27T08:01:11.166Z,-3.80
2023-02-27T08:03:43.934Z,-3.60
2023-02-27T08:06:14.245Z,-3.00
2023-02-27T08:08:45.819Z,-2.60
2023-02-27T08:11:15.846Z,-2.40
2023-02-27T08:14:02.914Z,-2.00
2023-02-27T08:16:33.944Z,-1.50
2023-02-27T08:19:06.627Z,-1.40
2023-02-27T08:21:36.600Z,-1.60
2023-02-27T08:24:06.784Z,-1.40
2023-02-27T08:26:37.031Z,-1.40
2023-02-27T08:29:07.899Z,-1.30
2023-02-27T08:31:38.080Z,-1.00
2023-02-27T08:34:11.062Z,-1.10
2023-02-27T08:36:41.662Z,-0.80
2023-02-27T08:39:12.780Z,-0.70
2023-02-27T08:41:43.129Z,-0.40
2023-02-27T08:44:14.188Z,0.00
2023-02-27T08:46:44.625Z,-0.20
2023-02-27T08:49:19.446Z,-0.10
2023-02-27T08:51:50.600Z,-0.20
2023-02-27T08:54:21.418Z,-0.10
2023-02-27T08:56:51.847Z,-0.10
2023-02-27T08:59:21.893Z,0.50
2023-02-27T09:01:52.665Z,0.70
2023-02-27T09:04:25.726Z,0.80
2023-02-27T09:06:57.765Z,0.70
2023-02-27T09:09:27.848Z,1.10
2023-02-27T09:11:58.218Z,0.90
2023-02-27T09:14:28.564Z,1.10
2023-02-27T09:16:59.025Z,1.40
2023-02-27T09:19:31.666Z,1.20
2023-02-27T09:22:01.807Z,1.30
2023-02-27T09:24:31.943Z,1.10
2023-02-27T09:27:02.007Z,1.30
2023-02-27T09:29:32.155Z,1.50
2023-02-27T09:32:02.283Z,1.10
2023-02-27T09:34:35.443Z,1.30
2023-02-27T09:37:05.683Z,0.70
2023-02-27T09:39:36.540Z,1.30
2023-02-27T09:42:09.833Z,1.20
2023-02-27T09:44:48.332Z,1.50
2023-02-27T09:47:23.964Z,0.70
2023-02-27T09:50:05.788Z,0.90
2023-02-27T09:52:38.529Z,0.60
2023-02-27T09:55:14.683Z,0.80
2023-02-27T09:57:52.434Z,0.20
2023-02-27T10:00:39.155Z,0.00
2023-02-27T10:03:28.851Z,-0.10
2023-02-27T10:06:21.979Z,-0.20
2023-02-27T10:09:02.511Z,-0.10
2023-02-27T10:11:39.272Z,0.40
2023-02-27T10:14:19.440Z,1.00
2023-02-27T10:16:53.474Z,1.30
2023-02-27T10:19:30.171Z,1.90
2023-02-27T10:22:04.449Z,2.20
2023-02-27T10:24:40.043Z,2.20
2023-02-27T10:27:15.346Z,2.20
2023-02-27T10:29:45.355Z,1.70
2023-02-27T10:32:20.103Z,1.90
2023-02-27T10:34:55.006Z,1.50
2023-02-27T10:37:30.517Z,1.60
2023-02-27T10:40:04.817Z,1.50
2023-02-27T10:42:41.528Z,1.60
2023-02-27T10:45:17.684Z,1.50
2023-02-27T10:47:48.034Z,2.10
2023-02-27T10:50:27.125Z,2.40
2023-02-27T10:53:01.667Z,2.90
2023-02-27T10:55:33.137Z,3.20
2023-02-27T10:58:05.661Z,2.90
2023-02-27T11:00:44.247Z,2.90
2023-02-27T11:03:23.007Z,2.60
2023-02-27T11:06:00.572Z,2.70
2023-02-27T11:08:34.800Z,2.40
2023-02-27T11:11:06.545Z,2.80
2023-02-27T11:13:38.316Z,2.90
2023-02-27T11:16:14.028Z,3.10
2023-02-27T11:18:46.296Z,2.80
2023-02-27T11:21:27.500Z,2.90
2023-02-27T11:24:09.821Z,2.60
2023-02-27T11:26:42.614Z,2.80
2023-02-27T11:29:20.661Z,2.90
2023-02-27T11:31:55.136Z,2.90
2023-02-27T11:34:32.772Z,2.90
2023-02-27T11:37:04.926Z,3.10
2023-02-27T11:39:42.245Z,3.00
2023-02-27T11:42:21.473Z,2.70
2023-02-27T11:44:57.636Z,3.00
2023-02-27T11:47:31.848Z,3.20
2023-02-27T11:50:43.339Z,3.50
2023-02-27T11:53:37.271Z,3.10
2023-02-27T11:56:14.608Z,3.90
2023-02-27T11:58:53.950Z,3.90
2023-02-27T12:01:29.427Z,3.90
2023-02-27T12:04:05.538Z,4.10
2023-02-27T12:06:41.010Z,4.00
2023-02-27T12:09:24.630Z,3.80
2023-02-27T12:11:59.289Z,3.70
2023-02-27T12:14:34.975Z,3.70
2023-02-27T12:17:09.752Z,3.10
2023-02-27T12:19:47.073Z,3.50
2023-02-27T12:22:26.004Z,4.10
2023-02-27T12:25:00.571Z,3.80
2023-02-27T12:27:44.295Z,4.10
2023-02-27T12:30:21.137Z,3.70
2023-02-27T12:32:57.085Z,3.80
2023-02-27T12:35:31.495Z,3.80
2023-02-27T12:38:05.230Z,3.50
2023-02-27T12:40:41.188Z,3.70
2023-02-27T12:43:26.186Z,3.60
2023-02-27T12:46:26.000Z,4.40
2023-02-27T12:49:28.138Z,4.80
2023-02-27T12:52:08.643Z,4.40
2023-02-27T12:54:46.833Z,4.20
2023-02-27T12:57:35.058Z,4.50
2023-02-27T13:00:15.570Z,3.90
2023-02-27T13:02:57.717Z,4.20
2023-02-27T13:05:38.201Z,4.10
2023-02-27T13:08:20.525Z,4.10
2023-02-27T13:10:54.308Z,4.10
2023-02-27T13:13:31.342Z,4.10
2023-02-27T13:16:08.624Z,4.00
2023-02-27T13:18:46.472Z,3.50
2023-02-27T13:21:23.801Z,3.40
2023-02-27T13:24:05.552Z,3.50
2023-02-27T13:26:39.462Z,3.90
2023-02-27T13:29:14.176Z,3.50
2023-02-27T13:31:55.777Z,3.70
2023-02-27T13:34:33.784Z,3.60
2023-02-27T13:37:06.587Z,3.60
2023-02-27T13:39:56.427Z,3.80
2023-02-27T13:42:56.043Z,3.60
2023-02-27T13:46:04.869Z,3.70
2023-02-27T13:48:49.810Z,3.50
2023-02-27T13:52:01.526Z,3.20
2023-02-27T13:54:42.050Z,3.50
2023-02-27T13:57:28.573Z,3.40
2023-02-27T14:00:05.169Z,3.40
2023-02-27T14:03:00.473Z,3.60
2023-02-27T14:05:42.464Z,3.80
2023-02-27T14:08:18.202Z,3.40
2023-02-27T14:10:58.623Z,2.80
2023-02-27T14:13:59.010Z,2.40
2023-02-27T14:17:00.436Z,2.00
2023-02-27T14:19:57.237Z,2.00
2023-02-27T14:22:44.432Z,1.90
2023-02-27T14:25:34.709Z,2.10
2023-02-27T14:28:06.085Z,1.80
2023-02-27T14:30:40.983Z,1.80
2023-02-27T14:33:33.305Z,1.80
2023-02-27T14:36:12.909Z,1.70
2023-02-27T14:38:46.384Z,1.90
2023-02-27T14:41:29.593Z,1.40
2023-02-27T14:44:01.704Z,1.50
2023-02-27T14:46:33.810Z,1.40
2023-02-27T14:49:06.637Z,1.10
2023-02-27T14:51:39.930Z,1.20
2023-02-27T14:54:17.749Z,1.20
2023-02-27T14:56:57.376Z,0.80
2023-02-27T14:59:29.234Z,1.10
2023-02-27T15:02:02.140Z,1.10
2023-02-27T15:04:34.728Z,0.90
2023-02-27T15:07:04.795Z,0.90
2023-02-27T15:09:43.764Z,1.00
2023-02-27T15:12:20.370Z,0.70
2023-02-27T15:14:54.213Z,0.80
2023-02-27T15:17:26.369Z,0.80
2023-02-27T15:19:59.307Z,1.10
2023-02-27T15:22:38.928Z,1.10
2023-02-27T15:25:34.541Z,0.80
2023-02-27T15:28:06.905Z,1.10
2023-02-27T15:30:36.929Z,0.80
2023-02-27T15:33:07.094Z,0.50
2023-02-27T15:35:40.245Z,0.80
2023-02-27T15:38:10.667Z,0.80
2023-02-27T15:40:43.826Z,0.80
2023-02-27T15:43:14.365Z,0.80
2023-02-27T15:45:44.631Z,0.20
2023-02-27T15:48:17.202Z,0.40
2023-02-27T15:50:50.516Z,0.40
2023-02-27T15:53:22.991Z,0.50
2023-02-27T15:55:57.913Z,0.70
2023-02-27T15:58:30.299Z,0.50
2023-02-27T16:01:04.182Z,0.50
2023-02-27T16:03:39.478Z,0.60
2023-02-27T16:06:14.873Z,0.50
2023-02-27T16:08:50.676Z,0.70
2023-02-27T16:11:28.006Z,0.50
2023-02-27T16:13:59.227Z,0.40
2023-02-27T16:16:35.128Z,0.10
2023-02-27T16:19:18.773Z,0.10
2023-02-27T16:22:07.359Z,0.10
2023-02-27T16:24:37.821Z,0.30
2023-02-27T16:27:19.580Z,-0.10
2023-02-27T16:29:50.408Z,0.40
2023-02-27T16:32:26.599Z,-0.10
2023-02-27T16:35:04.494Z,0.20
2023-02-27T16:37:39.551Z,0.00
2023-02-27T16:40:17.256Z,0.10
2023-02-27T16:42:49.784Z,-0.10
2023-02-27T16:45:21.631Z,0.20
2023-02-27T16:47:53.203Z,-0.30
2023-02-27T16:50:26.195Z,-0.10
2023-02-27T16:52:57.253Z,0.00
2023-02-27T16:55:28.625Z,-0.10
2023-02-27T16:58:01.251Z,-0.10
2023-02-27T17:00:31.210Z,-0.40
2023-02-27T17:03:01.222Z,0.10
2023-02-27T17:05:31.472Z,-0.30
2023-02-27T17:08:01.255Z,0.00
2023-02-27T17:10:31.281Z,-0.30
2023-02-27T17:13:04.081Z,-0.10
2023-02-27T17:15:33.971Z,-0.40
2023-02-27T17:18:04.084Z,0.00
2023-02-27T17:20:34.160Z,0.00
2023-02-27T17:23:04.648Z,-0.30
2023-02-27T17:25:34.475Z,-0.30
2023-02-27T17:28:07.746Z,-0.40
2023-02-27T17:30:38.210Z,-0.40
2023-02-27T17:33:08.442Z,-0.20
2023-02-27T17:35:38.284Z,-0.40
2023-02-27T17:38:08.187Z,-0.40
2023-02-27T17:40:39.436Z,-0.40
2023-02-27T17:43:12.533Z,-0.40
2023-02-27T17:45:42.377Z,-0.40
2023-02-27T17:48:13.203Z,-0.40
2023-02-27T17:50:44.941Z,-0.40
2023-02-27T17:53:19.145Z,-0.60
2023-02-27T17:55:49.013Z,-0.50
2023-02-27T17:58:22.522Z,-0.70
2023-02-27T18:00:52.486Z,-0.80
2023-02-27T18:03:22.555Z,-0.50
2023-02-27T18:05:54.220Z,-0.80
2023-02-27T18:08:24.141Z,-0.80
2023-02-27T18:10:54.872Z,-0.90
2023-02-27T18:13:28.681Z,-0.80
2023-02-27T18:15:59.457Z,-0.80
2023-02-27T18:18:29.324Z,-1.10
2023-02-27T18:21:04.039Z,-1.00
2023-02-27T18:23:34.017Z,-1.20
2023-02-27T18:26:04.395Z,-1.00
2023-02-27T18:28:36.953Z,-0.80
2023-02-27T18:31:07.054Z,-1.00
2023-02-27T18:33:37.194Z,-1.10
2023-02-27T18:36:07.560Z,-1.00
2023-02-27T18:38:38.018Z,-1.20
2023-02-27T18:41:09.431Z,-1.10
2023-02-27T18:43:42.771Z,-1.20
2023-02-27T18:46:13.683Z,-1.10
2023-02-27T18:48:46.380Z,-1.10
2023-02-27T18:51:18.484Z,-1.10
2023-02-27T18:53:51.018Z,-0.90
2023-02-27T18:56:23.147Z,-1.10
2023-02-27T18:58:57.316Z,-1.20
2023-02-27T19:01:29.522Z,-1.40
2023-02-27T19:04:03.790Z,-1.10
2023-02-27T19:06:34.498Z,-1.50
2023-02-27T19:09:06.586Z,-1.00
2023-02-27T19:11:36.675Z,-1.10
2023-02-27T19:14:11.855Z,-1.40
2023-02-27T19:16:41.661Z,-1.10
2023-02-27T19:19:11.931Z,-1.20
2023-02-27T19:21:41.776Z,-1.10
2023-02-27T19:24:13.535Z,-1.10
2023-02-27T19:26:43.917Z,-0.90
2023-02-27T19:29:17.398Z,-1.10
2023-02-27T19:31:47.337Z,-1.10
2023-02-27T19:34:17.713Z,-1.10
2023-02-27T19:36:47.608Z,-1.10
2023-02-27T19:39:17.880Z,-1.20
2023-02-27T19:41:47.632Z,-0.90
2023-02-27T19:44:20.402Z,-1.10
2023-02-27T19:46:52.101Z,-1.00
2023-02-27T19:49:22.792Z,-0.80
2023-02-27T19:51:52.568Z,-1.10
2023-02-27T19:54:22.716Z,-1.00
2023-02-27T19:56:53.404Z,-1.20
2023-02-27T19:59:26.547Z,-1.10
2023-02-27T20:01:58.143Z,-1.10
2023-02-27T20:04:28.509Z,-1.20
2023-02-27T20:06:58.341Z,-1.10
2023-02-27T20:09:28.416Z,-1.30
2023-02-27T20:12:00.674Z,-1.00
2023-02-27T20:14:33.124Z,-1.30
2023-02-27T20:17:03.247Z,-1.40
2023-02-27T20:19:33.042Z,-1.30
2023-02-27T20:22:02.928Z,-1.40
2023-02-27T20:24:32.697Z,-1.40
2023-02-27T20:27:02.485Z,-1.30
2023-02-27T20:29:35.381Z,-1.50
2023-02-27T20:32:05.561Z,-1.40
2023-02-27T20:34:35.501Z,-1.30
2023-02-27T20:37:05.877Z,-1.10
2023-02-27T20:39:35.676Z,-1.40
2023-02-27T20:42:05.946Z,-1.30
2023-02-27T20:44:38.823Z,-1.30
2023-02-27T20:47:09.098Z,-1.40
2023-02-27T20:49:39.501Z,-1.10
2023-02-27T20:52:09.327Z,-1.20
2023-02-27T20:54:39.552Z,-1.10
2023-02-27T20:57:09.379Z,-1.30
2023-02-27T20:59:42.572Z,-1.20
2023-02-27T21:02:13.531Z,-1.10
2023-02-27T21:04:47.735Z,-1.20
2023-02-27T21:07:21.387Z,-1.10
2023-02-27T21:09:52.128Z,-1.10
2023-02-27T21:12:21.969Z,-1.10
2023-02-27T21:14:54.358Z,-1.10
2023-02-27T21:17:26.155Z,-1.30
2023-02-27T21:19:56.437Z,-1.30
2023-02-27T21:22:26.334Z,-1.40
2023-02-27T21:24:57.159Z,-1.40
2023-02-27T21:27:26.944Z,-1.50
2023-02-27T21:29:59.853Z,-1.60
2023-02-27T21:32:29.768Z,-1.60
2023-02-27T21:34:59.693Z,-1.60
2023-02-27T21:37:29.745Z,-1.90
2023-02-27T21:40:01.864Z,-1.80
2023-02-27T21:42:31.749Z,-2.00
2023-02-27T21:45:04.122Z,-2.00
2023-02-27T21:47:34.002Z,-2.20
2023-02-27T21:50:04.177Z,-2.30
2023-02-27T21:52:34.128Z,-1.90
2023-02-27T21:55:05.046Z,-2.00
2023-02-27T21:57:34.904Z,-2.50
2023-02-27T22:00:11.652Z,-2.30
2023-02-27T22:02:41.884Z,-2.20
2023-02-27T22:05:12.543Z,-2.20
2023-02-27T22:07:42.326Z,-2.40
2023-02-27T22:10:14.030Z,-2.40
2023-02-27T22:12:43.865Z,-2.40
2023-02-27T22:15:16.560Z,-2.70
2023-02-27T22:17:46.370Z,-2.80
2023-02-27T22:20:16.913Z,-2.50
2023-02-27T22:22:47.331Z,-2.60
2023-02-27T22:25:17.602Z,-3.20
2023-02-27T22:27:47.468Z,-2.90
2023-02-27T22:30:20.513Z,-2.70
2023-02-27T22:32:50.309Z,-2.70
2023-02-27T22:35:20.556Z,-2.80
2023-02-27T22:37:50.662Z,-2.60
2023-02-27T22:40:21.243Z,-2.40
2023-02-27T22:42:51.093Z,-2.30
2023-02-27T22:45:24.016Z,-2.50
2023-02-27T22:47:53.841Z,-2.10
2023-02-27T22:50:24.021Z,-1.90
2023-02-27T22:52:53.855Z,-2.20
2023-02-27T22:55:23.857Z,-2.20
2023-02-27T22:57:53.687Z,-2.30
2023-02-27T23:00:26.533Z,-2.30
2023-02-27T23:02:56.313Z,-2.20
2023-02-27T23:05:26.408Z,-2.20
2023-02-27T23:07:56.210Z,-2.20
2023-02-27T23:10:26.474Z,-2.30
2023-02-27T23:12:56.324Z,-2.20
2023-02-27T23:15:29.099Z,-2.20
2023-02-27T23:17:59.027Z,-2.30
2023-02-27T23:20:29.469Z,-2.30
2023-02-27T23:22:59.766Z,-2.40
2023-02-27T23:25:29.800Z,-2.30
2023-02-27T23:27:59.741Z,-2.30
2023-02-27T23:30:33.597Z,-2.40
2023-02-27T23:33:03.704Z,-2.40
2023-02-27T23:35:33.932Z,-2.40
2023-02-27T23:38:03.747Z,-2.40
2023-02-27T23:40:33.868Z,-2.70
2023-02-27T23:43:03.680Z,-2.50
2023-02-27T23:45:34.366Z,-2.50
2023-02-27T23:48:05.188Z,-2.50
2023-02-27T23:50:37.738Z,-2.50
2023-02-27T23:53:08.288Z,-2.90
2023-02-27T23:55:39.838Z,-2.70
2023-02-27T23:58:11.878Z,-2.70
